Time,TemperatureF,DewpointF,PressureIn,WindDirection,WindDirectionDegrees,WindSpeedMPH,WindSpeedGustMPH,Humidity,HourlyPrecipIn,Conditions,Clouds,dailyrainin,SolarRadiationWatts/m^2,SoftwareType,DateUTC
2013-03-29 00:03:00,32.7,28.1,30.03,ESE,118,3.5,3.5,83,0.00,RA,,0.00,0.0,WeatherDisplay:10.37,2013-03-29 00:03:00,
2013-03-29 00:08:00,32.7,28.1,30.03,ESE,123,4.6,4.6,83,0.00,RA,,0.00,0.0,WeatherDisplay:10.37,2013-03-29 00:08:00,
2013-03-29 00:13:00,32.7,28.4,30.03,ESE,121,3.5,3.5,84,0.00,CLR,,0.00,0.0,WeatherDisplay:10.37,2013-03-29 00:13:00,
2013-03-29 00:18:00,32.7,28.4,30.03,ESE,122,3.5,3.5,84,0.00,CLR,,0.00,0.0,WeatherDisplay:10.37,2013-03-29 00:18:00,
2013-03-29 00:23:00,32.7,28.4,30.03,ESE,122,4.0,4.0,84,0.00,CLR,,0.00,0.0,WeatherDisplay:10.37,2013-03-29 00:23:00,
2013-03-29 00:28:00,32.7,28.4,30.04,SE,127,4.6,4.6,84,0.00,CLR,,0.00,0.0,WeatherDisplay:10.37,2013-03-29 00:28:00,
2013-03-29 00:33:00,32.7,28.4,30.04,ESE,118,4.6,4.6,84,0.00,CLR,,0.00,0.0,WeatherDisplay:10.37,2013-03-29 00:33:00,
2013-03-29 00:38:00,32.7,28.4,30.03,ESE,112,3.5,3.5,84,0.00,CLR,,0.00,0.0,WeatherDisplay:10.37,2013-03-29 00:38:00,
2013-03-29 00:43:00,32.7,28.4,30.03,ESE,114,3.5,3.5,84,0.00,CLR,,0.00,0.0,WeatherDisplay:10.37,2013-03-29 00:43:00,
2013-03-29 00:48:00,32.7,28.4,30.03,ESE,113,4.0,4.0,84,0.00,CLR,,0.00,0.0,WeatherDisplay:10.37,2013-03-29 00:48:00,
2013-03-29 00:53:00,32.7,28.4,30.03,ESE,109,3.5,3.5,84,0.00,CLR,,0.00,0.0,WeatherDisplay:10.37,2013-03-29 00:53:00,
2013-03-29 00:58:00,32.7,28.4,30.03,ESE,110,3.5,3.5,84,0.00,CLR,,0.00,0.0,WeatherDisplay:10.37,2013-03-29 00:58:00,
2013-03-29 01:03:00,32.6,28.3,30.03,ESE,110,3.5,3.5,84,0.00,CLR,,0.00,0.0,WeatherDisplay:10.37,2013-03-29 01:03:00,
2013-03-29 01:08:00,32.5,27.9,30.03,ESE,111,3.5,3.5,83,0.00,CLR,,0.00,0.0,WeatherDisplay:10.37,2013-03-29 01:08:00,
2013-03-29 01:13:00,32.4,27.8,30.03,ESE,111,2.3,2.3,83,0.00,CLR,,0.00,0.0,WeatherDisplay:10.37,2013-03-29 01:13:00,
2013-03-29 01:18:00,32.2,27.6,30.02,ESE,111,2.3,2.3,83,0.00,CLR,,0.00,0.0,WeatherDisplay:10.37,2013-03-29 01:18:00,
2013-03-29 01:23:00,32.1,27.5,30.02,ESE,111,3.5,3.5,83,0.00,CLR,,0.00,0.0,WeatherDisplay:10.37,2013-03-29 01:23:00,
2013-03-29 01:28:00,31.9,27.3,30.02,ESE,112,3.5,3.5,83,0.00,CLR,,0.00,0.0,WeatherDisplay:10.37,2013-03-29 01:28:00,
2013-03-29 01:33:00,31.8,27.2,30.02,ESE,111,3.0,3.0,83,0.00,CLR,,0.00,0.0,WeatherDisplay:10.37,2013-03-29 01:33:00,
2013-03-29 01:38:00,31.6,27.0,30.02,ESE,111,1.2,1.2,83,0.00,CLR,,0.00,0.0,WeatherDisplay:10.37,2013-03-29 01:38:00,
2013-03-29 01:43:00,31.5,26.9,30.02,ESE,111,1.2,1.2,83,0.00,CLR,,0.00,0.0,WeatherDisplay:10.37,2013-03-29 01:43:00,
2013-03-29 01:48:00,31.3,26.7,30.02,ESE,111,2.3,2.3,83,0.00,CLR,,0.00,0.0,WeatherDisplay:10.37,2013-03-29 01:48:00,
2013-03-29 01:53:00,31.1,26.5,30.02,ESE,111,0.0,0.0,83,0.00,CLR,,0.00,0.0,WeatherDisplay:10.37,2013-03-29 01:53:00,
2013-03-29 01:58:00,30.9,26.3,30.02,ESE,112,0.0,0.0,83,0.00,CLR,,0.00,0.0,WeatherDisplay:10.37,2013-03-29 01:58:00,
2013-03-29 02:03:00,30.8,26.2,30.02,ESE,111,0.0,0.0,83,0.00,CLR,,0.00,0.0,WeatherDisplay:10.37,2013-03-29 02:03:00,
2013-03-29 02:08:00,30.6,26.3,30.01,ESE,111,2.0,2.0,84,0.00,CLR,,0.00,0.0,WeatherDisplay:10.37,2013-03-29 02:08:00,
2013-03-29 02:13:00,30.5,26.2,30.01,ESE,112,0.0,0.0,84,0.00,CLR,,0.00,0.0,WeatherDisplay:10.37,2013-03-29 02:13:00,
2013-03-29 02:18:00,30.4,26.4,30.02,ESE,111,3.5,3.5,85,0.00,CLR,,0.00,0.0,WeatherDisplay:10.37,2013-03-29 02:18:00,
2013-03-29 02:23:00,30.4,26.7,30.01,ESE,111,2.3,2.3,86,0.00,CLR,,0.00,0.0,WeatherDisplay:10.37,2013-03-29 02:23:00,
2013-03-29 02:28:00,30.4,26.7,30.01,ESE,115,3.5,3.5,86,0.00,CLR,,0.00,0.0,WeatherDisplay:10.37,2013-03-29 02:28:00,
2013-03-29 02:33:00,30.6,26.9,30.01,SE,133,3.5,3.5,86,0.00,CLR,,0.00,0.0,WeatherDisplay:10.37,2013-03-29 02:33:00,
2013-03-29 02:38:00,30.7,27.0,30.01,SE,133,3.5,3.5,86,0.00,CLR,,0.00,0.0,WeatherDisplay:10.37,2013-03-29 02:38:00,
2013-03-29 02:43:00,30.9,27.2,30.01,SE,132,3.5,3.5,86,0.00,CLR,,0.00,0.0,WeatherDisplay:10.37,2013-03-29 02:43:00,
2013-03-29 02:48:00,31.1,27.4,30.01,SE,132,3.5,3.5,86,0.00,CLR,,0.00,0.0,WeatherDisplay:10.37,2013-03-29 02:48:00,
2013-03-29 02:53:00,31.2,27.5,30.01,SE,132,3.5,3.5,86,0.00,CLR,,0.00,0.0,WeatherDisplay:10.37,2013-03-29 02:53:00,
2013-03-29 02:58:00,31.3,27.6,30.01,SE,134,3.5,3.5,86,0.00,CLR,,0.00,0.0,WeatherDisplay:10.37,2013-03-29 02:58:00,
2013-03-29 03:03:00,31.4,29.3,30.01,SE,132,3.5,3.5,92,0.00,CLR,,0.00,0.0,WeatherDisplay:10.37,2013-03-29 03:03:00,
2013-03-29 03:08:00,31.5,27.8,30.00,SE,132,2.3,2.3,86,0.00,CLR,,0.00,0.0,WeatherDisplay:10.37,2013-03-29 03:08:00,
2013-03-29 03:13:00,31.5,27.8,30.00,SE,132,2.3,2.3,86,0.00,CLR,,0.00,0.0,WeatherDisplay:10.37,2013-03-29 03:13:00,
2013-03-29 03:18:00,31.5,27.8,30.00,SE,132,3.5,3.5,86,0.00,CLR,,0.00,0.0,WeatherDisplay:10.37,2013-03-29 03:18:00,
2013-03-29 03:23:00,31.5,27.8,30.00,SE,132,0.0,0.0,86,0.00,CLR,,0.00,0.0,WeatherDisplay:10.37,2013-03-29 03:23:00,
2013-03-29 03:29:00,31.4,27.4,30.00,SE,132,0.0,0.0,85,0.00,CLR,,0.00,0.0,WeatherDisplay:10.37,2013-03-29 03:29:00,
2013-03-29 03:34:00,31.3,27.3,30.00,SE,133,2.3,2.3,85,0.00,CLR,,0.00,0.0,WeatherDisplay:10.37,2013-03-29 03:34:00,
2013-03-29 03:39:00,31.2,27.5,30.00,SE,133,2.3,2.3,86,0.00,CLR,,0.00,0.0,WeatherDisplay:10.37,2013-03-29 03:39:00,
2013-03-29 03:44:00,31.2,27.5,30.00,SE,133,0.0,0.7,86,0.00,CLR,,0.00,0.0,WeatherDisplay:10.37,2013-03-29 03:44:00,
2013-03-29 03:49:00,31.2,27.5,30.00,SE,132,2.3,2.3,86,0.00,CLR,,0.00,0.0,WeatherDisplay:10.37,2013-03-29 03:49:00,
2013-03-29 03:54:00,31.2,27.5,30.00,SE,126,4.6,4.6,86,0.00,CLR,,0.00,0.0,WeatherDisplay:10.37,2013-03-29 03:54:00,
2013-03-29 03:59:00,31.2,27.8,30.00,SE,128,1.2,0.0,87,0.00,CLR,,0.00,0.0,WeatherDisplay:10.37,2013-03-29 03:59:00,
2013-03-29 04:00:00,31.2,27.8,30.00,SE,127,0.0,0.0,87,0.00,CLR,,0.00,0.0,WeatherDisplay:10.37,2013-03-29 04:00:00,
2013-03-29 04:05:00,31.3,27.6,30.00,SE,126,2.3,2.3,86,0.00,CLR,,0.00,0.0,WeatherDisplay:10.37,2013-03-29 04:05:00,
2013-03-29 04:10:00,31.3,27.6,30.00,SE,128,2.0,2.0,86,0.00,CLR,,0.00,0.0,WeatherDisplay:10.37,2013-03-29 04:10:00,
2013-03-29 04:15:00,31.4,27.7,30.00,SE,128,3.5,3.5,86,0.00,CLR,,0.00,0.0,WeatherDisplay:10.37,2013-03-29 04:15:00,
2013-03-29 04:20:00,31.4,27.7,30.00,SE,126,5.0,5.0,86,0.00,CLR,,0.00,0.0,WeatherDisplay:10.37,2013-03-29 04:20:00,
2013-03-29 04:25:00,31.5,27.8,30.00,SE,124,3.5,3.5,86,0.00,CLR,,0.00,0.0,WeatherDisplay:10.37,2013-03-29 04:25:00,
2013-03-29 04:30:00,31.6,27.9,30.00,SE,128,3.5,3.5,86,0.00,CLR,,0.00,0.0,WeatherDisplay:10.37,2013-03-29 04:30:00,
2013-03-29 04:35:00,31.6,27.9,30.00,SE,126,3.5,3.5,86,0.00,CLR,,0.00,0.0,WeatherDisplay:10.37,2013-03-29 04:35:00,
2013-03-29 04:40:00,31.7,28.0,30.00,SE,126,3.5,3.5,86,0.00,CLR,,0.00,0.0,WeatherDisplay:10.37,2013-03-29 04:40:00,
2013-03-29 04:45:00,31.8,28.1,30.00,SE,128,4.6,4.6,86,0.00,CLR,,0.00,0.0,WeatherDisplay:10.37,2013-03-29 04:45:00,
2013-03-29 04:50:00,31.8,28.1,30.00,SE,128,3.5,3.5,86,0.00,CLR,,0.00,0.0,WeatherDisplay:10.37,2013-03-29 04:50:00,
2013-03-29 04:55:00,31.9,27.9,30.00,SE,128,3.5,3.5,85,0.00,CLR,,0.00,0.0,WeatherDisplay:10.37,2013-03-29 04:55:00,
2013-03-29 05:00:00,31.9,27.9,30.00,SE,129,3.5,3.5,85,0.00,CLR,,0.00,0.0,WeatherDisplay:10.37,2013-03-29 05:00:00,
2013-03-29 05:05:00,31.9,27.9,29.99,SE,128,3.5,3.5,85,0.00,CLR,,0.00,0.0,WeatherDisplay:10.37,2013-03-29 05:05:00,
2013-03-29 05:10:00,32.0,28.0,29.99,SE,132,3.0,3.0,85,0.00,CLR,,0.00,0.0,WeatherDisplay:10.37,2013-03-29 05:10:00,
2013-03-29 05:15:00,32.0,28.0,30.00,SE,133,3.5,3.5,85,0.00,CLR,,0.00,0.0,WeatherDisplay:10.37,2013-03-29 05:15:00,
2013-03-29 05:20:00,32.0,28.0,30.00,SE,134,3.5,3.7,85,0.00,CLR,,0.00,0.0,WeatherDisplay:10.37,2013-03-29 05:20:00,
2013-03-29 05:25:00,32.0,28.0,30.00,SE,146,4.6,4.6,85,0.00,OVC,,0.00,0.0,WeatherDisplay:10.37,2013-03-29 05:25:00,
2013-03-29 05:30:00,31.9,27.9,30.00,SE,141,4.6,4.6,85,0.00,OVC,,0.00,0.0,WeatherDisplay:10.37,2013-03-29 05:30:00,
2013-03-29 05:35:00,31.9,27.6,30.00,SE,130,9.2,9.2,84,0.00,OVC,,0.00,0.0,WeatherDisplay:10.37,2013-03-29 05:35:00,
2013-03-29 05:40:00,31.9,27.6,30.00,SE,134,6.0,6.0,84,0.00,OVC,,0.00,0.0,WeatherDisplay:10.37,2013-03-29 05:40:00,
2013-03-29 05:45:00,32.0,27.4,30.00,ESE,123,4.6,4.6,83,0.00,OVC,,0.00,0.0,WeatherDisplay:10.37,2013-03-29 05:45:00,
2013-03-29 05:50:00,32.0,27.4,30.00,ESE,120,5.8,5.8,83,0.00,OVC,,0.00,0.0,WeatherDisplay:10.37,2013-03-29 05:50:00,
2013-03-29 05:55:00,32.1,27.5,29.99,ESE,116,4.0,4.0,83,0.00,OVC,,0.00,0.0,WeatherDisplay:10.37,2013-03-29 05:55:00,
2013-03-29 06:00:00,32.1,27.5,30.00,ESE,113,9.2,9.2,83,0.00,OVC,,0.00,0.0,WeatherDisplay:10.37,2013-03-29 06:00:00,
2013-03-29 06:05:00,32.2,27.6,30.00,ESE,115,5.8,5.8,83,0.00,OVC,,0.00,0.0,WeatherDisplay:10.37,2013-03-29 06:05:00,
2013-03-29 06:10:00,32.3,27.7,30.00,ESE,115,3.5,3.5,83,0.00,BKN,,0.00,7.0,WeatherDisplay:10.37,2013-03-29 06:10:00,
2013-03-29 06:16:00,32.3,27.7,30.00,ESE,117,4.0,4.0,83,0.00,BKN,,0.00,9.0,WeatherDisplay:10.37,2013-03-29 06:16:00,
2013-03-29 06:21:00,32.3,27.7,30.00,ESE,115,3.5,3.5,83,0.00,BKN,,0.00,11.0,WeatherDisplay:10.37,2013-03-29 06:21:00,
2013-03-29 06:26:00,32.3,27.7,30.00,ESE,117,2.3,2.3,83,0.00,BKN,,0.00,11.0,WeatherDisplay:10.37,2013-03-29 06:26:00,
2013-03-29 06:31:00,32.3,27.7,30.00,ESE,117,3.5,3.5,83,0.00,BKN,,0.00,12.0,WeatherDisplay:10.37,2013-03-29 06:31:00,
2013-03-29 06:36:00,32.3,27.7,30.00,ESE,117,3.5,3.5,83,0.00,BKN,,0.00,14.0,WeatherDisplay:10.37,2013-03-29 06:36:00,
2013-03-29 06:41:00,32.3,27.7,30.00,ESE,116,3.0,3.0,83,0.00,BKN,,0.00,16.0,WeatherDisplay:10.37,2013-03-29 06:41:00,
2013-03-29 06:46:00,32.3,27.7,30.00,ESE,113,4.6,4.6,83,0.00,BKN,,0.00,18.0,WeatherDisplay:10.37,2013-03-29 06:46:00,
2013-03-29 06:51:00,32.4,27.8,30.00,ESE,113,3.5,3.5,83,0.00,BKN,,0.00,19.0,WeatherDisplay:10.37,2013-03-29 06:51:00,
2013-03-29 06:56:00,32.4,27.8,30.00,ESE,113,3.5,3.5,83,0.00,BKN,,0.00,26.0,WeatherDisplay:10.37,2013-03-29 06:56:00,
2013-03-29 07:01:00,32.5,27.9,30.00,ESE,115,3.5,3.5,83,0.00,BKN,,0.00,26.0,WeatherDisplay:10.37,2013-03-29 07:01:00,
2013-03-29 07:06:00,32.5,27.9,30.00,ESE,114,4.0,4.0,83,0.00,BKN,,0.00,23.0,WeatherDisplay:10.37,2013-03-29 07:06:00,
2013-03-29 07:11:00,32.5,27.9,30.00,ESE,114,3.5,3.5,83,0.00,BKN,,0.00,32.0,WeatherDisplay:10.37,2013-03-29 07:11:00,
2013-03-29 07:17:00,32.6,28.0,30.00,ESE,114,2.3,2.3,83,0.00,BKN,,0.00,32.0,WeatherDisplay:10.37,2013-03-29 07:17:00,
2013-03-29 07:22:00,32.6,28.0,30.00,ESE,114,3.5,3.5,83,0.00,BKN,,0.00,30.0,WeatherDisplay:10.37,2013-03-29 07:22:00,
2013-03-29 07:27:00,32.7,28.1,30.00,ESE,112,3.5,3.5,83,0.00,BKN,,0.00,23.0,WeatherDisplay:10.37,2013-03-29 07:27:00,
2013-03-29 07:32:00,32.7,28.1,30.00,ESE,113,3.5,3.5,83,0.00,BKN,,0.00,32.0,WeatherDisplay:10.37,2013-03-29 07:32:00,
2013-03-29 07:37:00,32.7,28.4,30.00,ESE,118,3.5,3.5,84,0.00,BKN,,0.00,25.0,WeatherDisplay:10.37,2013-03-29 07:37:00,
2013-03-29 07:42:00,32.7,28.4,30.00,East,92,4.6,4.6,84,0.00,BKN,,0.00,33.0,WeatherDisplay:10.37,2013-03-29 07:42:00,
2013-03-29 07:47:00,32.7,28.4,30.00,East,98,3.5,3.5,84,0.00,BKN,,0.00,51.0,WeatherDisplay:10.37,2013-03-29 07:47:00,
2013-03-29 07:52:00,32.7,28.4,30.00,East,99,5.0,5.0,84,0.00,BKN,,0.00,62.0,WeatherDisplay:10.37,2013-03-29 07:52:00,
2013-03-29 07:57:00,32.7,28.4,30.00,East,98,6.0,6.0,84,0.00,BKN,,0.00,67.0,WeatherDisplay:10.37,2013-03-29 07:57:00,
2013-03-29 08:02:00,32.7,28.4,30.00,ESE,106,4.6,4.6,84,0.00,BKN,,0.00,74.0,WeatherDisplay:10.37,2013-03-29 08:02:00,
2013-03-29 08:07:00,32.7,28.4,30.00,ESE,109,5.8,5.8,84,0.00,BKN,,0.00,58.0,WeatherDisplay:10.37,2013-03-29 08:07:00,
2013-03-29 08:12:00,32.8,28.5,30.00,ESE,121,3.5,3.5,84,0.00,BKN,,0.00,60.0,WeatherDisplay:10.37,2013-03-29 08:12:00,
2013-03-29 08:17:00,32.9,28.6,30.00,ESE,117,4.6,4.6,84,0.00,BKN,,0.00,69.0,WeatherDisplay:10.37,2013-03-29 08:17:00,
2013-03-29 08:22:00,33.0,28.4,30.00,ESE,115,3.5,3.5,83,0.00,BKN,,0.00,88.0,WeatherDisplay:10.37,2013-03-29 08:22:00,
2013-03-29 08:27:00,33.1,28.5,29.99,ESE,115,2.3,2.3,83,0.00,BKN,,0.00,111.0,WeatherDisplay:10.37,2013-03-29 08:27:00,
2013-03-29 08:32:00,33.3,28.7,30.00,ESE,117,2.3,2.3,83,0.00,BKN,,0.00,109.0,WeatherDisplay:10.37,2013-03-29 08:32:00,
2013-03-29 08:37:00,33.4,28.8,30.00,ESE,116,6.0,6.0,83,0.00,BKN,,0.00,76.0,WeatherDisplay:10.37,2013-03-29 08:37:00,
2013-03-29 08:42:00,33.6,29.0,30.00,ESE,116,2.3,2.3,83,0.00,BKN,,0.00,63.0,WeatherDisplay:10.37,2013-03-29 08:42:00,
2013-03-29 08:47:00,33.7,28.8,30.00,ESE,116,3.5,3.5,82,0.00,BKN,,0.00,58.0,WeatherDisplay:10.37,2013-03-29 08:47:00,
2013-03-29 08:52:00,33.8,28.9,30.00,ESE,110,3.5,3.5,82,0.00,BKN,,0.00,81.0,WeatherDisplay:10.37,2013-03-29 08:52:00,
2013-03-29 08:57:00,33.9,29.0,30.00,SE,130,7.0,7.0,82,0.00,BKN,,0.00,74.0,WeatherDisplay:10.37,2013-03-29 08:57:00,
2013-03-29 09:02:00,34.0,29.4,30.00,ESE,117,5.0,5.0,83,0.00,BKN,,0.00,107.0,WeatherDisplay:10.37,2013-03-29 09:02:00,
2013-03-29 09:07:00,34.0,29.4,30.00,SE,137,3.5,3.5,83,0.00,BKN,,0.00,102.0,WeatherDisplay:10.37,2013-03-29 09:07:00,
2013-03-29 09:13:00,34.0,29.7,30.00,SE,136,4.6,4.6,84,0.00,BKN,,0.00,104.0,WeatherDisplay:10.37,2013-03-29 09:13:00,
2013-03-29 09:18:00,34.0,29.7,30.00,SE,136,4.6,4.6,84,0.00,BKN,,0.00,105.0,WeatherDisplay:10.37,2013-03-29 09:18:00,
2013-03-29 09:23:00,34.0,30.0,29.99,SE,136,3.5,3.5,85,0.00,BKN,,0.00,123.0,WeatherDisplay:10.37,2013-03-29 09:23:00,
2013-03-29 09:28:00,34.0,30.0,29.99,SE,130,3.5,3.5,85,0.00,BKN,,0.00,116.0,WeatherDisplay:10.37,2013-03-29 09:28:00,
2013-03-29 09:33:00,34.0,30.0,29.99,SE,132,3.5,3.5,85,0.00,BKN,,0.00,90.0,WeatherDisplay:10.37,2013-03-29 09:33:00,
2013-03-29 09:38:00,34.0,30.0,29.99,SE,134,4.6,4.6,85,0.01,RA,,0.01,114.0,WeatherDisplay:10.37,2013-03-29 09:38:00,
2013-03-29 09:43:00,34.1,30.1,29.99,SE,132,3.5,3.5,85,0.01,RA,,0.01,142.0,WeatherDisplay:10.37,2013-03-29 09:43:00,
2013-03-29 09:48:00,34.1,29.8,29.99,SE,132,2.3,0.0,84,0.01,BKN,,0.01,149.0,WeatherDisplay:10.37,2013-03-29 09:48:00,
2013-03-29 09:53:00,34.2,29.9,29.99,SE,132,2.3,0.0,84,0.01,BKN,,0.01,128.0,WeatherDisplay:10.37,2013-03-29 09:53:00,
2013-03-29 09:58:00,34.3,30.0,29.99,SE,133,1.2,1.2,84,0.01,BKN,,0.01,148.0,WeatherDisplay:10.37,2013-03-29 09:58:00,
2013-03-29 10:03:00,34.5,30.2,29.99,SE,132,3.0,3.0,84,0.01,BKN,,0.01,229.0,WeatherDisplay:10.37,2013-03-29 10:03:00,
2013-03-29 10:08:00,34.7,30.4,29.99,ESE,114,5.8,5.8,84,0.01,BKN,,0.01,192.0,WeatherDisplay:10.37,2013-03-29 10:08:00,
2013-03-29 10:13:00,35.1,30.2,29.99,ESE,113,11.5,11.5,82,0.01,BKN,,0.01,158.0,WeatherDisplay:10.37,2013-03-29 10:13:00,
2013-03-29 10:18:00,35.3,30.4,29.99,ESE,110,10.0,10.0,82,0.01,BKN,,0.01,239.0,WeatherDisplay:10.37,2013-03-29 10:18:00,
2013-03-29 10:23:00,35.5,30.8,29.99,ESE,115,5.8,5.8,83,0.01,BKN,,0.01,295.0,WeatherDisplay:10.37,2013-03-29 10:23:00,
2013-03-29 10:28:00,35.8,31.1,29.99,East,91,3.5,3.5,83,0.01,SCT,,0.01,236.0,WeatherDisplay:10.37,2013-03-29 10:28:00,
2013-03-29 10:33:00,36.1,31.1,29.99,East,99,6.9,6.9,82,0.01,SCT,,0.01,640.0,WeatherDisplay:10.37,2013-03-29 10:33:00,
2013-03-29 10:38:00,36.5,31.2,29.98,ESE,103,4.6,4.6,81,0.01,RA,,0.02,202.0,WeatherDisplay:10.37,2013-03-29 10:38:00,
2013-03-29 10:43:00,36.7,31.4,29.99,ESE,115,5.0,5.0,81,0.01,RA,,0.02,213.0,WeatherDisplay:10.37,2013-03-29 10:43:00,
2013-03-29 10:48:00,37.0,31.4,29.99,SE,129,4.6,4.6,80,0.01,BKN,,0.02,408.0,WeatherDisplay:10.37,2013-03-29 10:48:00,
2013-03-29 10:53:00,37.4,31.5,29.99,East,95,4.6,4.6,79,0.01,SCT,,0.02,162.0,WeatherDisplay:10.37,2013-03-29 10:53:00,
2013-03-29 10:58:00,37.5,31.3,29.99,ESE,102,12.7,12.7,78,0.01,SCT,,0.02,202.0,WeatherDisplay:10.37,2013-03-29 10:58:00,
2013-03-29 11:03:00,37.7,31.5,29.98,ENE,59,3.5,3.5,78,0.01,BKN,,0.02,155.0,WeatherDisplay:10.37,2013-03-29 11:03:00,
2013-03-29 11:08:00,37.6,31.7,29.99,East,83,3.5,3.5,79,0.01,BKN,,0.02,109.0,WeatherDisplay:10.37,2013-03-29 11:08:00,
2013-03-29 11:14:00,37.4,31.8,29.99,ENE,69,3.5,3.5,80,0.02,RA,,0.02,100.0,WeatherDisplay:10.37,2013-03-29 11:14:00,
2013-03-29 11:19:00,37.0,32.0,29.99,NNE,16,2.3,2.3,82,0.02,RA,,0.02,188.0,WeatherDisplay:10.37,2013-03-29 11:19:00,
2013-03-29 11:24:00,37.1,33.3,29.98,ESE,119,3.5,3.5,86,0.02,SCT,,0.02,772.0,WeatherDisplay:10.37,2013-03-29 11:24:00,
2013-03-29 11:29:00,37.6,33.5,29.98,East,94,4.6,4.6,85,0.02,CLR,,0.02,765.0,WeatherDisplay:10.37,2013-03-29 11:29:00,
2013-03-29 11:34:00,38.0,33.6,29.98,ESE,111,10.0,10.0,84,0.02,CLR,,0.02,633.0,WeatherDisplay:10.37,2013-03-29 11:34:00,
2013-03-29 11:39:00,38.6,33.6,29.97,NE,46,3.5,3.5,82,0.01,CLR,,0.02,677.0,WeatherDisplay:10.37,2013-03-29 11:39:00,
2013-03-29 11:44:00,39.1,33.1,29.97,SE,139,4.6,4.6,79,0.01,CLR,,0.02,624.0,WeatherDisplay:10.37,2013-03-29 11:44:00,
2013-03-29 11:49:00,39.6,33.6,29.98,ESE,115,2.3,2.3,79,0.01,CLR,,0.03,642.0,WeatherDisplay:10.37,2013-03-29 11:49:00,
2013-03-29 11:54:00,39.9,32.9,29.97,NE,49,5.8,5.8,76,0.02,RA,,0.03,599.0,WeatherDisplay:10.37,2013-03-29 11:54:00,
2013-03-29 11:59:00,40.3,32.7,29.97,ESE,110,4.6,4.6,74,0.02,RA,,0.03,633.0,WeatherDisplay:10.37,2013-03-29 11:59:00,
2013-03-29 12:04:00,40.7,33.1,29.97,SE,137,3.5,3.5,74,0.02,CLR,,0.03,559.0,WeatherDisplay:10.37,2013-03-29 12:04:00,
2013-03-29 12:09:00,41.0,32.3,29.97,ESE,107,11.5,11.5,71,0.02,CLR,,0.03,236.0,WeatherDisplay:10.37,2013-03-29 12:09:00,
2013-03-29 12:14:00,41.1,31.7,29.97,ESE,107,10.4,10.4,69,0.01,FEW,,0.03,243.0,WeatherDisplay:10.37,2013-03-29 12:14:00,
2013-03-29 12:19:00,41.1,31.3,29.96,ESE,117,11.5,11.5,68,0.01,BKN,,0.03,174.0,WeatherDisplay:10.37,2013-03-29 12:19:00,
2013-03-29 12:24:00,40.9,31.1,29.96,ENE,74,5.8,5.8,68,0.01,BKN,,0.03,225.0,WeatherDisplay:10.37,2013-03-29 12:24:00,
2013-03-29 12:29:00,40.8,31.4,29.96,ESE,112,6.9,6.9,69,0.01,BKN,,0.03,174.0,WeatherDisplay:10.37,2013-03-29 12:29:00,
2013-03-29 12:34:00,40.8,31.4,29.96,ENE,57,3.5,3.5,69,0.01,BKN,,0.03,179.0,WeatherDisplay:10.37,2013-03-29 12:34:00,
2013-03-29 12:39:00,40.8,32.1,29.96,East,83,4.0,4.0,71,0.01,BKN,,0.03,677.0,WeatherDisplay:10.37,2013-03-29 12:39:00,
2013-03-29 12:44:00,41.2,32.9,29.96,NE,52,5.8,5.8,72,0.01,CLR,,0.03,763.0,WeatherDisplay:10.37,2013-03-29 12:44:00,
2013-03-29 12:49:00,41.5,32.8,29.96,ENE,63,5.8,5.8,71,0.00,CLR,,0.03,137.0,WeatherDisplay:10.37,2013-03-29 12:49:00,
2013-03-29 12:54:00,41.7,33.3,29.95,SE,132,3.5,3.5,72,0.00,SCT,,0.04,671.0,WeatherDisplay:10.37,2013-03-29 12:54:00,
2013-03-29 12:59:00,41.8,32.7,29.95,ESE,109,2.3,2.3,70,0.01,RA,,0.04,269.0,WeatherDisplay:10.37,2013-03-29 12:59:00,
2013-03-29 13:04:00,42.0,33.3,29.95,NE,45,3.5,3.5,71,0.01,SCT,,0.04,225.0,WeatherDisplay:10.37,2013-03-29 13:04:00,
2013-03-29 13:09:00,42.2,33.1,29.95,NE,45,3.5,3.5,70,0.01,BKN,,0.04,195.0,WeatherDisplay:10.37,2013-03-29 13:09:00,
2013-03-29 13:14:00,42.3,33.6,29.95,NE,56,3.0,5.1,71,0.01,BKN,,0.04,253.0,WeatherDisplay:10.37,2013-03-29 13:14:00,
2013-03-29 13:19:00,42.5,33.0,29.95,ENE,63,4.6,4.6,69,0.01,BKN,,0.04,267.0,WeatherDisplay:10.37,2013-03-29 13:19:00,
2013-03-29 13:24:00,42.5,33.4,29.95,ESE,113,8.1,8.1,70,0.01,SCT,,0.04,288.0,WeatherDisplay:10.37,2013-03-29 13:24:00,
2013-03-29 13:29:00,42.4,33.3,29.95,ENE,63,6.9,6.9,70,0.01,SCT,,0.04,279.0,WeatherDisplay:10.37,2013-03-29 13:29:00,
2013-03-29 13:34:00,42.3,33.9,29.95,NE,41,2.3,2.3,72,0.01,SCT,,0.04,599.0,WeatherDisplay:10.37,2013-03-29 13:34:00,
2013-03-29 13:39:00,42.2,33.5,29.95,NNE,28,2.3,2.3,71,0.01,CLR,,0.04,559.0,WeatherDisplay:10.37,2013-03-29 13:39:00,
2013-03-29 13:44:00,42.1,33.4,29.94,North,351,3.5,3.5,71,0.01,CLR,,0.04,570.0,WeatherDisplay:10.37,2013-03-29 13:44:00,
2013-03-29 13:49:00,42.1,33.0,29.94,East,82,4.6,4.6,70,0.01,CLR,,0.04,566.0,WeatherDisplay:10.37,2013-03-29 13:49:00,
2013-03-29 13:54:00,42.2,32.4,29.94,ENE,73,3.5,3.5,68,0.00,CLR,,0.04,155.0,WeatherDisplay:10.37,2013-03-29 13:54:00,
2013-03-29 13:59:00,42.1,32.7,29.94,NE,54,10.4,10.4,69,0.00,SCT,,0.04,125.0,WeatherDisplay:10.37,2013-03-29 13:59:00,
2013-03-29 14:04:00,41.9,32.5,29.94,East,98,10.0,10.0,69,0.00,BKN,,0.04,121.0,WeatherDisplay:10.37,2013-03-29 14:04:00,
2013-03-29 14:09:00,41.7,30.0,29.94,East,101,15.0,15.0,63,0.00,SCT,,0.04,548.0,WeatherDisplay:10.37,2013-03-29 14:09:00,
2013-03-29 14:14:00,41.6,29.1,29.93,ESE,103,11.5,11.5,61,0.00,CLR,,0.04,522.0,WeatherDisplay:10.37,2013-03-29 14:14:00,
2013-03-29 14:19:00,41.7,29.2,29.93,East,101,15.0,15.0,61,0.00,CLR,,0.04,522.0,WeatherDisplay:10.37,2013-03-29 14:19:00,
2013-03-29 14:24:00,41.8,29.7,29.93,ESE,110,13.0,13.0,62,0.00,CLR,,0.04,520.0,WeatherDisplay:10.37,2013-03-29 14:24:00,
2013-03-29 14:29:00,41.9,30.6,29.94,East,98,15.0,15.0,64,0.00,CLR,,0.04,499.0,WeatherDisplay:10.37,2013-03-29 14:29:00,
2013-03-29 14:34:00,41.9,31.0,29.94,East,84,4.0,4.0,65,0.00,CLR,,0.04,506.0,WeatherDisplay:10.37,2013-03-29 14:34:00,
2013-03-29 14:39:00,41.8,30.5,29.94,ESE,119,12.7,12.7,64,0.00,CLR,,0.04,487.0,WeatherDisplay:10.37,2013-03-29 14:39:00,
2013-03-29 14:44:00,41.7,30.0,29.93,SE,127,12.7,12.7,63,0.00,CLR,,0.04,471.0,WeatherDisplay:10.37,2013-03-29 14:44:00,
2013-03-29 14:49:00,41.5,28.2,29.94,ESE,118,18.4,18.4,59,0.00,CLR,,0.04,443.0,WeatherDisplay:10.37,2013-03-29 14:49:00,
2013-03-29 14:54:00,41.3,27.2,29.93,East,92,15.0,15.0,57,0.00,CLR,,0.04,436.0,WeatherDisplay:10.37,2013-03-29 14:54:00,
2013-03-29 14:59:00,41.2,26.2,29.93,ESE,107,15.0,15.0,55,0.00,CLR,,0.04,422.0,WeatherDisplay:10.37,2013-03-29 14:59:00,
2013-03-29 15:04:00,41.2,26.7,29.93,ESE,123,11.5,11.5,56,0.00,CLR,,0.04,415.0,WeatherDisplay:10.37,2013-03-29 15:04:00,
2013-03-29 15:09:00,41.1,27.0,29.93,ESE,119,13.8,13.8,57,0.00,CLR,,0.04,411.0,WeatherDisplay:10.37,2013-03-29 15:09:00,
2013-03-29 15:14:00,41.2,28.4,29.93,ESE,102,13.8,13.8,60,0.00,CLR,,0.04,450.0,WeatherDisplay:10.37,2013-03-29 15:14:00,
2013-03-29 15:19:00,41.2,27.5,29.93,ESE,104,15.0,15.0,58,0.00,CLR,,0.04,418.0,WeatherDisplay:10.37,2013-03-29 15:19:00,
2013-03-29 15:24:00,41.2,27.9,29.93,ESE,110,11.0,11.0,59,0.00,CLR,,0.04,388.0,WeatherDisplay:10.37,2013-03-29 15:24:00,
2013-03-29 15:29:00,41.1,27.0,29.93,ESE,103,16.1,16.1,57,0.00,CLR,,0.04,367.0,WeatherDisplay:10.37,2013-03-29 15:29:00,
2013-03-29 15:34:00,41.0,27.8,29.93,ESE,109,9.2,9.2,59,0.00,CLR,,0.04,357.0,WeatherDisplay:10.37,2013-03-29 15:34:00,
2013-03-29 15:39:00,40.9,27.7,29.93,ESE,118,10.4,10.4,59,0.00,CLR,,0.04,348.0,WeatherDisplay:10.37,2013-03-29 15:39:00,
2013-03-29 15:44:00,40.8,28.0,29.93,ESE,115,6.9,6.9,60,0.00,CLR,,0.04,336.0,WeatherDisplay:10.37,2013-03-29 15:44:00,
2013-03-29 15:49:00,40.8,27.6,29.93,East,101,15.0,15.0,59,0.00,CLR,,0.04,327.0,WeatherDisplay:10.37,2013-03-29 15:49:00,
2013-03-29 15:54:00,40.7,27.9,29.93,East,94,12.7,12.7,60,0.00,CLR,,0.04,315.0,WeatherDisplay:10.37,2013-03-29 15:54:00,
2013-03-29 15:59:00,40.6,27.8,29.93,ESE,109,9.2,9.2,60,0.00,CLR,,0.04,309.0,WeatherDisplay:10.37,2013-03-29 15:59:00,
2013-03-29 16:04:00,40.4,27.6,29.93,ENE,74,10.4,10.4,60,0.00,CLR,,0.04,297.0,WeatherDisplay:10.37,2013-03-29 16:04:00,
2013-03-29 16:09:00,40.3,26.7,29.92,ESE,121,15.0,15.0,58,0.00,CLR,,0.04,288.0,WeatherDisplay:10.37,2013-03-29 16:09:00,
2013-03-29 16:14:00,40.2,27.0,29.92,East,82,16.1,16.1,59,0.00,CLR,,0.04,276.0,WeatherDisplay:10.37,2013-03-29 16:14:00,
2013-03-29 16:19:00,40.1,26.5,29.92,ESE,114,15.0,15.0,58,0.00,CLR,,0.04,264.0,WeatherDisplay:10.37,2013-03-29 16:19:00,
2013-03-29 16:24:00,39.9,26.3,29.92,ESE,115,15.0,15.0,58,0.00,CLR,,0.04,250.0,WeatherDisplay:10.37,2013-03-29 16:24:00,
2013-03-29 16:29:00,39.8,26.2,29.92,East,101,15.0,15.0,58,0.00,CLR,,0.04,220.0,WeatherDisplay:10.37,2013-03-29 16:29:00,
2013-03-29 16:34:00,39.6,26.0,29.93,ESE,103,15.0,15.0,58,0.00,CLR,,0.04,139.0,WeatherDisplay:10.37,2013-03-29 16:34:00,
2013-03-29 16:39:00,39.5,25.5,29.92,ESE,111,18.4,18.4,57,0.00,FEW,,0.04,163.0,WeatherDisplay:10.37,2013-03-29 16:39:00,
2013-03-29 16:44:00,39.3,25.3,29.92,ESE,105,18.0,18.0,57,0.00,SCT,,0.04,84.0,WeatherDisplay:10.37,2013-03-29 16:44:00,
2013-03-29 16:49:00,39.2,25.6,29.92,ESE,110,16.1,16.1,58,0.00,SCT,,0.04,118.0,WeatherDisplay:10.37,2013-03-29 16:49:00,
2013-03-29 16:54:00,39.0,26.7,29.92,East,96,15.0,15.0,61,0.00,SCT,,0.04,137.0,WeatherDisplay:10.37,2013-03-29 16:54:00,
2013-03-29 16:59:00,38.9,26.2,29.92,ESE,121,16.1,16.1,60,0.00,SCT,,0.04,125.0,WeatherDisplay:10.37,2013-03-29 16:59:00,
2013-03-29 17:05:00,38.8,26.1,29.93,ESE,120,13.0,13.0,60,0.00,SCT,,0.04,62.0,WeatherDisplay:10.37,2013-03-29 17:05:00,
2013-03-29 17:10:00,38.6,26.3,29.92,ESE,110,13.8,13.8,61,0.00,BKN,,0.04,30.0,WeatherDisplay:10.37,2013-03-29 17:10:00,
2013-03-29 17:15:00,38.4,26.5,29.93,ENE,77,17.3,17.3,62,0.00,BKN,,0.04,26.0,WeatherDisplay:10.37,2013-03-29 17:15:00,
2013-03-29 17:20:00,38.2,25.9,29.93,East,96,17.3,17.3,61,0.00,BKN,,0.04,26.0,WeatherDisplay:10.37,2013-03-29 17:20:00,
2013-03-29 17:25:00,38.0,25.7,29.93,East,90,16.1,16.1,61,0.00,BKN,,0.04,25.0,WeatherDisplay:10.37,2013-03-29 17:25:00,
2013-03-29 17:30:00,37.9,26.0,29.92,East,92,10.0,10.0,62,0.00,BKN,,0.04,23.0,WeatherDisplay:10.37,2013-03-29 17:30:00,
2013-03-29 17:35:00,37.7,26.6,29.93,East,95,15.0,15.0,64,0.00,BKN,,0.04,23.0,WeatherDisplay:10.37,2013-03-29 17:35:00,
2013-03-29 17:40:00,37.5,26.8,29.94,ESE,114,16.1,16.1,65,0.00,BKN,,0.04,21.0,WeatherDisplay:10.37,2013-03-29 17:40:00,
2013-03-29 17:45:00,37.4,26.7,29.93,ESE,107,11.5,11.5,65,0.00,BKN,,0.04,19.0,WeatherDisplay:10.37,2013-03-29 17:45:00,
2013-03-29 17:50:00,37.2,26.9,29.94,East,79,15.0,15.0,66,0.00,BKN,,0.04,19.0,WeatherDisplay:10.37,2013-03-29 17:50:00,
2013-03-29 17:55:00,37.1,27.2,29.94,ESE,113,11.5,11.5,67,0.00,BKN,,0.04,18.0,WeatherDisplay:10.37,2013-03-29 17:55:00,
2013-03-29 18:00:00,36.9,26.6,29.94,ESE,106,15.0,15.0,66,0.00,BKN,,0.04,18.0,WeatherDisplay:10.37,2013-03-29 18:00:00,
2013-03-29 18:05:00,36.7,26.4,29.94,ESE,102,11.5,11.5,66,0.00,BKN,,0.04,16.0,WeatherDisplay:10.37,2013-03-29 18:05:00,
2013-03-29 18:10:00,36.6,26.7,29.94,SE,126,12.0,12.0,67,0.00,BKN,,0.04,14.0,WeatherDisplay:10.37,2013-03-29 18:10:00,
2013-03-29 18:15:00,36.5,26.9,29.94,East,92,9.2,9.2,68,0.00,BKN,,0.04,14.0,WeatherDisplay:10.37,2013-03-29 18:15:00,
2013-03-29 18:20:00,36.3,26.7,29.94,ESE,110,11.5,11.5,68,0.00,BKN,,0.04,12.0,WeatherDisplay:10.37,2013-03-29 18:20:00,
2013-03-29 18:25:00,36.2,26.6,29.94,East,100,11.5,11.5,68,0.00,BKN,,0.04,12.0,WeatherDisplay:10.37,2013-03-29 18:25:00,
2013-03-29 18:30:00,36.1,26.9,29.94,ESE,110,6.0,6.0,69,0.00,BKN,,0.04,11.0,WeatherDisplay:10.37,2013-03-29 18:30:00,
2013-03-29 18:35:00,35.9,26.4,29.94,ESE,104,12.7,12.7,68,0.00,BKN,,0.04,7.0,WeatherDisplay:10.37,2013-03-29 18:35:00,
2013-03-29 18:40:00,35.8,26.6,29.94,ESE,109,6.9,6.9,69,0.00,SCT,,0.04,7.0,WeatherDisplay:10.37,2013-03-29 18:40:00,
2013-03-29 18:45:00,35.7,26.5,29.94,ESE,114,11.5,11.5,69,0.00,CLR,,0.04,5.0,WeatherDisplay:10.37,2013-03-29 18:45:00,
2013-03-29 18:50:00,35.5,26.3,29.94,ESE,113,5.8,5.8,69,0.00,OVC,,0.04,0.0,WeatherDisplay:10.37,2013-03-29 18:50:00,
2013-03-29 18:55:00,35.4,26.6,29.95,ESE,115,5.8,5.8,70,0.00,OVC,,0.04,0.0,WeatherDisplay:10.37,2013-03-29 18:55:00,
2013-03-29 19:00:00,35.3,26.5,29.95,ESE,109,11.5,11.5,70,0.00,CLR,,0.04,0.0,WeatherDisplay:10.37,2013-03-29 19:00:00,
2013-03-29 19:05:00,35.2,26.4,29.94,ESE,111,5.8,5.8,70,0.00,CLR,,0.04,0.0,WeatherDisplay:10.37,2013-03-29 19:05:00,
2013-03-29 19:10:00,35.1,26.3,29.95,ESE,113,6.9,6.9,70,0.00,CLR,,0.04,0.0,WeatherDisplay:10.37,2013-03-29 19:10:00,
2013-03-29 19:15:00,34.9,26.1,29.95,ESE,112,4.6,4.6,70,0.00,CLR,,0.04,0.0,WeatherDisplay:10.37,2013-03-29 19:15:00,
2013-03-29 19:20:00,34.8,26.0,29.95,ESE,105,11.5,11.5,70,0.00,CLR,,0.04,0.0,WeatherDisplay:10.37,2013-03-29 19:20:00,
2013-03-29 19:25:00,34.7,25.9,29.95,ESE,105,6.9,6.9,70,0.00,CLR,,0.04,0.0,WeatherDisplay:10.37,2013-03-29 19:25:00,
2013-03-29 19:30:00,34.6,26.2,29.95,ESE,107,4.6,4.6,71,0.00,CLR,,0.04,0.0,WeatherDisplay:10.37,2013-03-29 19:30:00,
2013-03-29 19:35:00,34.5,26.1,29.95,ESE,103,4.6,4.6,71,0.00,CLR,,0.04,0.0,WeatherDisplay:10.37,2013-03-29 19:35:00,
2013-03-29 19:40:00,34.3,25.9,29.95,East,101,9.2,9.2,71,0.00,CLR,,0.04,0.0,WeatherDisplay:10.37,2013-03-29 19:40:00,
2013-03-29 19:45:00,34.2,25.8,29.95,ESE,102,4.6,4.6,71,0.00,CLR,,0.04,0.0,WeatherDisplay:10.37,2013-03-29 19:45:00,
2013-03-29 19:50:00,34.1,26.0,29.95,ESE,103,3.5,3.5,72,0.00,CLR,,0.04,0.0,WeatherDisplay:10.37,2013-03-29 19:50:00,
2013-03-29 19:55:00,34.0,25.9,29.95,ESE,106,4.0,4.0,72,0.00,CLR,,0.04,0.0,WeatherDisplay:10.37,2013-03-29 19:55:00,
2013-03-29 20:00:00,33.9,25.8,29.95,ESE,113,3.5,3.5,72,0.00,CLR,,0.04,0.0,WeatherDisplay:10.37,2013-03-29 20:00:00,
2013-03-29 20:05:00,33.9,25.8,29.95,ESE,113,3.5,3.5,72,0.00,CLR,,0.04,0.0,WeatherDisplay:10.37,2013-03-29 20:05:00,
2013-03-29 20:10:00,33.8,26.1,29.95,ESE,113,3.5,3.5,73,0.00,CLR,,0.04,0.0,WeatherDisplay:10.37,2013-03-29 20:10:00,
2013-03-29 20:15:00,33.6,25.9,29.95,ESE,113,3.5,3.5,73,0.00,CLR,,0.04,0.0,WeatherDisplay:10.37,2013-03-29 20:15:00,
2013-03-29 20:20:00,33.6,25.9,29.95,ESE,114,2.3,2.3,73,0.00,CLR,,0.04,0.0,WeatherDisplay:10.37,2013-03-29 20:20:00,
2013-03-29 20:25:00,33.4,25.7,29.95,ESE,114,0.0,0.0,73,0.00,CLR,,0.04,0.0,WeatherDisplay:10.37,2013-03-29 20:25:00,
2013-03-29 20:30:00,33.3,25.6,29.95,ESE,113,0.0,0.0,73,0.00,CLR,,0.04,0.0,WeatherDisplay:10.37,2013-03-29 20:30:00,
2013-03-29 20:35:00,33.1,25.4,29.95,ESE,114,0.0,0.0,73,0.00,CLR,,0.04,0.0,WeatherDisplay:10.37,2013-03-29 20:35:00,
2013-03-29 20:40:00,32.9,25.2,29.95,ESE,113,0.0,0.0,73,0.00,CLR,,0.04,0.0,WeatherDisplay:10.37,2013-03-29 20:40:00,
2013-03-29 20:45:00,32.7,25.0,29.95,ESE,113,0.0,0.0,73,0.00,CLR,,0.04,0.0,WeatherDisplay:10.37,2013-03-29 20:45:00,
2013-03-29 20:50:00,32.7,25.0,29.96,ESE,114,0.0,0.0,73,0.00,CLR,,0.04,0.0,WeatherDisplay:10.37,2013-03-29 20:50:00,
2013-03-29 20:55:00,32.5,25.5,29.96,ESE,113,2.3,2.3,75,0.00,CLR,,0.04,0.0,WeatherDisplay:10.37,2013-03-29 20:55:00,
2013-03-29 21:00:00,32.3,25.6,29.96,ESE,113,1.2,1.2,76,0.00,CLR,,0.04,0.0,WeatherDisplay:10.37,2013-03-29 21:00:00,
2013-03-29 21:05:00,32.2,25.8,29.96,ESE,118,2.3,2.3,77,0.00,CLR,,0.04,0.0,WeatherDisplay:10.37,2013-03-29 21:05:00,
2013-03-29 21:10:00,32.2,26.1,29.95,ESE,117,3.5,3.5,78,0.00,CLR,,0.04,0.0,WeatherDisplay:10.37,2013-03-29 21:10:00,
2013-03-29 21:15:00,32.2,26.4,29.96,ESE,110,4.6,4.6,79,0.00,CLR,,0.04,0.0,WeatherDisplay:10.37,2013-03-29 21:15:00,
2013-03-29 21:20:00,32.4,26.6,29.95,ESE,102,5.8,5.8,79,0.00,CLR,,0.04,0.0,WeatherDisplay:10.37,2013-03-29 21:20:00,
2013-03-29 21:25:00,32.6,26.8,29.95,ESE,116,4.6,4.6,79,0.00,CLR,,0.04,0.0,WeatherDisplay:10.37,2013-03-29 21:25:00,
2013-03-29 21:30:00,32.7,26.6,29.95,ESE,117,3.5,3.5,78,0.00,CLR,,0.04,0.0,WeatherDisplay:10.37,2013-03-29 21:30:00,
2013-03-29 21:35:00,32.7,26.6,29.95,ESE,117,0.0,0.0,78,0.00,CLR,,0.04,0.0,WeatherDisplay:10.37,2013-03-29 21:35:00,
2013-03-29 21:40:00,32.7,26.6,29.96,ESE,117,0.0,0.0,78,0.00,CLR,,0.04,0.0,WeatherDisplay:10.37,2013-03-29 21:40:00,
2013-03-29 21:45:00,32.7,26.6,29.95,ESE,117,2.3,2.3,78,0.00,CLR,,0.04,0.0,WeatherDisplay:10.37,2013-03-29 21:45:00,
2013-03-29 21:51:00,32.5,26.1,29.95,ESE,117,1.2,0.0,77,0.00,CLR,,0.04,0.0,WeatherDisplay:10.37,2013-03-29 21:51:00,
2013-03-29 21:56:00,32.3,25.9,29.95,ESE,117,2.3,2.3,77,0.00,CLR,,0.04,0.0,WeatherDisplay:10.37,2013-03-29 21:56:00,
2013-03-29 22:01:00,32.2,25.8,29.95,ESE,117,1.2,0.0,77,0.00,CLR,,0.04,0.0,WeatherDisplay:10.37,2013-03-29 22:01:00,
2013-03-29 22:06:00,32.0,25.9,29.95,ESE,117,3.5,3.5,78,0.00,CLR,,0.04,0.0,WeatherDisplay:10.37,2013-03-29 22:06:00,
2013-03-29 22:11:00,31.8,25.7,29.95,ESE,117,1.2,0.0,78,0.00,CLR,,0.04,0.0,WeatherDisplay:10.37,2013-03-29 22:11:00,
2013-03-29 22:16:00,31.6,25.8,29.95,ESE,117,1.2,1.2,79,0.00,CLR,,0.04,0.0,WeatherDisplay:10.37,2013-03-29 22:16:00,
2013-03-29 22:21:00,31.5,25.7,29.96,ESE,117,4.0,4.0,79,0.00,CLR,,0.04,0.0,WeatherDisplay:10.37,2013-03-29 22:21:00,
2013-03-29 22:26:00,31.4,25.9,29.95,ESE,117,1.2,0.0,80,0.00,CLR,,0.04,0.0,WeatherDisplay:10.37,2013-03-29 22:26:00,
2013-03-29 22:31:00,31.3,25.8,29.95,ESE,118,0.0,0.0,80,0.00,CLR,,0.04,0.0,WeatherDisplay:10.37,2013-03-29 22:31:00,
2013-03-29 22:36:00,31.3,26.1,29.96,ESE,117,3.5,3.5,81,0.00,CLR,,0.04,0.0,WeatherDisplay:10.37,2013-03-29 22:36:00,
2013-03-29 22:41:00,31.3,26.1,29.96,ESE,117,3.5,3.5,81,0.00,CLR,,0.04,0.0,WeatherDisplay:10.37,2013-03-29 22:41:00,
2013-03-29 22:46:00,31.3,26.4,29.96,ESE,113,2.3,2.3,82,0.00,CLR,,0.04,0.0,WeatherDisplay:10.37,2013-03-29 22:46:00,
2013-03-29 22:52:00,31.4,26.5,29.96,ESE,113,4.6,4.6,82,0.00,CLR,,0.04,0.0,WeatherDisplay:10.37,2013-03-29 22:52:00,
2013-03-29 22:57:00,31.6,27.0,29.96,ESE,117,3.5,3.5,83,0.00,CLR,,0.04,0.0,WeatherDisplay:10.37,2013-03-29 22:57:00,
2013-03-29 23:02:00,31.7,27.1,29.96,ESE,119,4.6,4.6,83,0.00,CLR,,0.04,0.0,WeatherDisplay:10.37,2013-03-29 23:02:00,
2013-03-29 23:07:00,32.0,27.4,29.96,ESE,121,2.3,2.3,83,0.00,CLR,,0.04,0.0,WeatherDisplay:10.37,2013-03-29 23:07:00,
2013-03-29 23:12:00,32.1,27.5,29.96,ESE,121,2.3,2.3,83,0.00,CLR,,0.04,0.0,WeatherDisplay:10.37,2013-03-29 23:12:00,
2013-03-29 23:17:00,32.2,27.6,29.96,ESE,121,2.3,2.3,83,0.00,CLR,,0.04,0.0,WeatherDisplay:10.37,2013-03-29 23:17:00,
2013-03-29 23:22:00,32.3,27.7,29.96,ESE,121,2.3,2.3,83,0.00,CLR,,0.04,0.0,WeatherDisplay:10.37,2013-03-29 23:22:00,
2013-03-29 23:27:00,32.3,27.7,29.96,ESE,121,0.0,0.0,83,0.00,CLR,,0.04,0.0,WeatherDisplay:10.37,2013-03-29 23:27:00,
2013-03-29 23:32:00,32.3,27.7,29.96,ESE,121,2.3,2.3,83,0.00,CLR,,0.04,0.0,WeatherDisplay:10.37,2013-03-29 23:32:00,
2013-03-29 23:37:00,32.3,27.7,29.96,ESE,121,1.2,0.0,83,0.00,CLR,,0.04,0.0,WeatherDisplay:10.37,2013-03-29 23:37:00,
2013-03-29 23:42:00,32.2,27.6,29.96,ESE,121,2.0,2.0,83,0.00,CLR,,0.04,0.0,WeatherDisplay:10.37,2013-03-29 23:42:00,
2013-03-29 23:48:00,32.2,27.6,29.96,ESE,121,0.0,0.0,83,0.00,CLR,,0.04,0.0,WeatherDisplay:10.37,2013-03-29 23:48:00,
2013-03-29 23:53:00,32.1,27.5,29.96,ESE,121,0.0,0.0,83,0.00,CLR,,0.04,0.0,WeatherDisplay:10.37,2013-03-29 23:53:00,
2013-03-29 23:58:00,31.9,27.3,29.96,ESE,121,0.0,0.0,83,0.00,CLR,,0.04,0.0,WeatherDisplay:10.37,2013-03-29 23:58:00,